Time,TemperatureF,DewpointF,PressureIn,WindDirection,WindDirectionDegrees,WindSpeedMPH,WindSpeedGustMPH,Humidity,HourlyPrecipIn,Conditions,Clouds,dailyrainin,SoftwareType,DateUTC
2013-03-02 00:01:00,40.0,23.0,30.40,East,87,4.0,4.0,51,0.00,,,0.00,,2013-03-02 08:01:00,
2013-03-02 00:21:00,43.0,24.0,30.40,ENE,75,4.0,6.0,46,0.00,,,0.00,,2013-03-02 08:21:00,
2013-03-02 00:31:00,45.0,23.0,30.41,ENE,69,1.0,4.0,42,0.00,,,0.00,,2013-03-02 08:31:00,
2013-03-02 00:42:00,45.0,23.0,30.41,ENE,69,1.0,4.0,42,0.00,,,0.00,,2013-03-02 08:42:00,
2013-03-02 00:52:00,39.0,22.0,30.41,SW,226,0.0,2.0,51,0.00,,,0.00,,2013-03-02 08:52:00,
2013-03-02 01:01:00,38.0,23.0,30.41,SW,226,0.0,0.0,55,0.00,,,0.00,,2013-03-02 09:01:00,
2013-03-02 01:11:00,36.0,23.0,30.41,SW,226,0.0,1.0,58,0.00,,,0.00,,2013-03-02 09:11:00,
2013-03-02 01:21:00,36.0,23.0,30.41,SW,226,0.0,1.0,58,0.00,,,0.00,,2013-03-02 09:21:00,
2013-03-02 01:31:00,35.0,23.0,30.40,SW,226,0.0,0.0,61,0.00,,,0.00,,2013-03-02 09:31:00,
2013-03-02 01:51:00,36.0,23.0,30.40,SW,225,0.0,0.0,58,0.00,,,0.00,,2013-03-02 09:51:00,
2013-03-02 02:01:00,35.0,23.0,30.40,SW,225,0.0,0.0,60,0.00,,,0.00,,2013-03-02 10:01:00,
2013-03-02 02:21:00,34.0,22.0,30.39,SW,226,0.0,0.0,61,0.00,,,0.00,,2013-03-02 10:21:00,
2013-03-02 02:31:00,37.0,24.0,30.39,SW,225,0.0,0.0,58,0.00,,,0.00,,2013-03-02 10:31:00,
2013-03-02 02:51:00,36.0,23.0,30.38,SW,225,0.0,0.0,58,0.00,,,0.00,,2013-03-02 10:51:00,
2013-03-02 03:01:00,37.0,23.0,30.38,SW,225,0.0,0.0,57,0.00,,,0.00,,2013-03-02 11:01:00,
2013-03-02 03:21:00,39.0,22.0,30.37,SW,225,0.0,0.0,51,0.00,,,0.00,,2013-03-02 11:21:00,
2013-03-02 03:31:00,40.0,23.0,30.37,SW,225,0.0,0.0,50,0.00,,,0.00,,2013-03-02 11:31:00,
2013-03-02 03:41:00,40.0,23.0,30.37,SW,225,0.0,0.0,50,0.00,,,0.00,,2013-03-02 11:41:00,
2013-03-02 03:52:00,39.0,22.0,30.36,SW,225,0.0,0.0,50,0.00,,,0.00,,2013-03-02 11:52:00,
2013-03-02 04:02:00,37.0,22.0,30.37,East,92,1.0,3.0,54,0.00,,,0.00,,2013-03-02 12:02:00,
2013-03-02 04:21:00,37.0,23.0,30.37,ENE,78,2.0,4.0,56,0.00,,,0.00,,2013-03-02 12:21:00,
2013-03-02 04:32:00,37.0,22.0,30.37,ENE,77,0.0,2.0,55,0.00,,,0.00,,2013-03-02 12:32:00,
2013-03-02 04:53:00,36.0,22.0,30.37,ENE,77,2.0,2.0,56,0.00,,,0.00,,2013-03-02 12:53:00,
2013-03-02 05:01:00,36.0,22.0,30.37,ENE,77,0.0,0.0,57,0.00,,,0.00,,2013-03-02 13:01:00,
2013-03-02 05:21:00,33.0,21.0,30.37,ENE,77,0.0,0.0,62,0.00,,,0.00,,2013-03-02 13:21:00,
2013-03-02 05:31:00,34.0,22.0,30.37,ENE,77,0.0,0.0,60,0.00,,,0.00,,2013-03-02 13:31:00,
2013-03-02 05:52:00,32.0,22.0,30.37,ENE,76,0.0,0.0,65,0.00,,,0.00,,2013-03-02 13:52:00,
2013-03-02 06:01:00,32.0,22.0,30.37,ENE,77,0.0,1.0,66,0.00,,,0.00,,2013-03-02 14:01:00,
2013-03-02 06:21:00,30.0,21.0,30.38,East,96,2.0,3.0,68,0.00,,,0.00,,2013-03-02 14:21:00,
2013-03-02 06:31:00,32.0,22.0,30.37,East,88,1.0,2.0,66,0.00,,,0.00,,2013-03-02 14:31:00,
2013-03-02 06:52:00,34.0,23.0,30.38,NW,325,1.0,2.0,63,0.00,,,0.00,,2013-03-02 14:52:00,
2013-03-02 07:01:00,35.0,24.0,30.38,NW,325,0.0,1.0,63,0.00,,,0.00,,2013-03-02 15:01:00,
2013-03-02 07:21:00,41.0,25.0,30.39,NW,326,0.0,0.0,53,0.00,,,0.00,,2013-03-02 15:21:00,
2013-03-02 07:31:00,45.0,27.0,30.39,NW,326,0.0,0.0,49,0.00,,,0.00,,2013-03-02 15:31:00,
2013-03-02 07:41:00,45.0,27.0,30.39,NW,326,0.0,0.0,49,0.00,,,0.00,,2013-03-02 15:41:00,
2013-03-02 07:52:00,46.0,25.0,30.38,NW,326,0.0,0.0,44,0.00,,,0.00,,2013-03-02 15:52:00,
2013-03-02 08:01:00,49.0,26.0,30.38,NW,326,0.0,0.0,41,0.00,,,0.00,,2013-03-02 16:01:00,
2013-03-02 08:11:00,49.0,26.0,30.38,NW,326,0.0,0.0,41,0.00,,,0.00,,2013-03-02 16:11:00,
2013-03-02 08:21:00,50.0,25.0,30.38,NW,326,0.0,0.0,38,0.00,,,0.00,,2013-03-02 16:21:00,
2013-03-02 08:31:00,51.0,25.0,30.38,NW,326,0.0,0.0,36,0.00,,,0.00,,2013-03-02 16:31:00,
2013-03-02 08:41:00,51.0,25.0,30.38,NW,326,0.0,0.0,36,0.00,,,0.00,,2013-03-02 16:41:00,
2013-03-02 08:51:00,53.0,26.0,30.38,NW,325,0.0,1.0,35,0.00,,,0.00,,2013-03-02 16:51:00,
2013-03-02 09:01:00,57.0,27.0,30.37,WNW,302,1.0,1.0,31,0.00,,,0.00,,2013-03-02 17:01:00,
2013-03-02 09:11:00,57.0,27.0,30.37,WNW,302,1.0,1.0,31,0.00,,,0.00,,2013-03-02 17:11:00,
2013-03-02 09:21:00,58.0,26.0,30.37,WSW,255,2.0,3.0,29,0.00,,,0.00,,2013-03-02 17:21:00,
2013-03-02 09:31:00,59.0,27.0,30.37,West,269,0.0,3.0,29,0.00,,,0.00,,2013-03-02 17:31:00,
2013-03-02 09:41:00,59.0,27.0,30.37,West,269,0.0,3.0,29,0.00,,,0.00,,2013-03-02 17:41:00,
2013-03-02 09:52:00,61.0,26.0,30.36,NW,304,1.0,4.0,26,0.00,,,0.00,,2013-03-02 17:52:00,
2013-03-02 10:01:00,65.0,27.0,30.36,SW,219,2.0,4.0,24,0.00,,,0.00,,2013-03-02 18:01:00,
2013-03-02 10:11:00,65.0,27.0,30.36,SW,219,2.0,4.0,24,0.00,,,0.00,,2013-03-02 18:11:00,
2013-03-02 10:21:00,66.0,26.0,30.36,WSW,246,2.0,4.0,22,0.00,,,0.00,,2013-03-02 18:21:00,
2013-03-02 10:31:00,67.0,26.0,30.35,WSW,240,4.0,5.0,21,0.00,,,0.00,,2013-03-02 18:31:00,
2013-03-02 10:41:00,67.0,26.0,30.35,WSW,240,4.0,5.0,21,0.00,,,0.00,,2013-03-02 18:41:00,
2013-03-02 10:52:00,67.0,27.0,30.35,SW,218,7.0,10.0,22,0.00,,,0.00,,2013-03-02 18:52:00,
2013-03-02 11:01:00,68.0,27.0,30.34,WSW,246,6.0,10.0,21,0.00,,,0.00,,2013-03-02 19:01:00,
2013-03-02 11:11:00,68.0,27.0,30.34,WSW,246,6.0,10.0,21,0.00,,,0.00,,2013-03-02 19:11:00,
2013-03-02 11:21:00,68.0,27.0,30.33,SW,226,5.0,9.0,21,0.00,,,0.00,,2013-03-02 19:21:00,
2013-03-02 11:31:00,69.0,27.0,30.32,WSW,243,5.0,8.0,21,0.00,,,0.00,,2013-03-02 19:31:00,
2013-03-02 11:42:00,69.0,27.0,30.32,WSW,243,5.0,8.0,21,0.00,,,0.00,,2013-03-02 19:42:00,
2013-03-02 11:52:00,70.0,27.0,30.32,SSW,201,4.0,7.0,20,0.00,,,0.00,,2013-03-02 19:52:00,
2013-03-02 12:01:00,71.0,27.0,30.31,SSW,194,3.0,7.0,19,0.00,,,0.00,,2013-03-02 20:01:00,
2013-03-02 12:11:00,71.0,27.0,30.31,SSW,194,3.0,7.0,19,0.00,,,0.00,,2013-03-02 20:11:00,
2013-03-02 12:21:00,71.0,25.0,30.30,East,94,3.0,5.0,18,0.00,,,0.00,,2013-03-02 20:21:00,
2013-03-02 12:31:00,72.0,26.0,30.29,WSW,256,3.0,6.0,18,0.00,,,0.00,,2013-03-02 20:31:00,
2013-03-02 12:41:00,72.0,26.0,30.29,WSW,256,3.0,6.0,18,0.00,,,0.00,,2013-03-02 20:41:00,
2013-03-02 12:52:00,73.0,27.0,30.28,SSE,150,3.0,6.0,18,0.00,,,0.00,,2013-03-02 20:52:00,
2013-03-02 13:02:00,74.0,25.0,30.27,WSW,252,1.0,4.0,16,0.00,,,0.00,,2013-03-02 21:02:00,
2013-03-02 13:11:00,74.0,25.0,30.27,WSW,252,1.0,4.0,16,0.00,,,0.00,,2013-03-02 21:11:00,
2013-03-02 13:21:00,74.0,26.0,30.27,WSW,255,2.0,4.0,17,0.00,,,0.00,,2013-03-02 21:21:00,
2013-03-02 13:31:00,75.0,26.0,30.26,SSE,157,3.0,4.0,16,0.00,,,0.00,,2013-03-02 21:31:00,
2013-03-02 13:41:00,75.0,26.0,30.26,SSE,157,3.0,4.0,16,0.00,,,0.00,,2013-03-02 21:41:00,
2013-03-02 13:51:00,75.0,26.0,30.25,West,266,4.0,5.0,16,0.00,,,0.00,,2013-03-02 21:51:00,
2013-03-02 14:01:00,75.0,26.0,30.24,WNW,288,4.0,7.0,16,0.00,,,0.00,,2013-03-02 22:01:00,
2013-03-02 14:11:00,75.0,26.0,30.24,WNW,288,4.0,7.0,16,0.00,,,0.00,,2013-03-02 22:11:00,
2013-03-02 14:21:00,75.0,27.0,30.24,WNW,302,2.0,5.0,17,0.00,,,0.00,,2013-03-02 22:21:00,
2013-03-02 14:31:00,75.0,24.0,30.23,ENE,64,1.0,3.0,15,0.00,,,0.00,,2013-03-02 22:31:00,
2013-03-02 14:42:00,75.0,24.0,30.23,ENE,64,1.0,3.0,15,0.00,,,0.00,,2013-03-02 22:42:00,
2013-03-02 14:51:00,76.0,27.0,30.22,East,86,1.0,3.0,16,0.00,,,0.00,,2013-03-02 22:51:00,
2013-03-02 15:01:00,75.0,26.0,30.22,SW,225,3.0,5.0,16,0.00,,,0.00,,2013-03-02 23:01:00,
2013-03-02 15:11:00,75.0,24.0,30.22,SSE,165,1.0,3.0,15,0.00,,,0.00,,2013-03-02 23:11:00,
2013-03-02 15:21:00,75.0,24.0,30.22,SSE,165,1.0,3.0,15,0.00,,,0.00,,2013-03-02 23:21:00,
2013-03-02 15:31:00,76.0,25.0,30.21,NE,41,0.0,2.0,15,0.00,,,0.00,,2013-03-02 23:31:00,
2013-03-02 15:41:00,76.0,25.0,30.21,NE,41,0.0,2.0,15,0.00,,,0.00,,2013-03-02 23:41:00,
2013-03-02 15:52:00,75.0,24.0,30.20,West,264,2.0,4.0,15,0.00,,,0.00,,2013-03-02 23:52:00,
2013-03-02 16:02:00,75.0,24.0,30.20,West,277,1.0,4.0,15,0.00,,,0.00,,2013-03-03 00:02:00,
2013-03-02 16:11:00,75.0,24.0,30.20,West,277,1.0,4.0,15,0.00,,,0.00,,2013-03-03 00:11:00,
2013-03-02 16:22:00,75.0,26.0,30.19,NW,315,3.0,5.0,16,0.00,,,0.00,,2013-03-03 00:22:00,
2013-03-02 16:31:00,74.0,25.0,30.19,West,269,2.0,3.0,16,0.00,,,0.00,,2013-03-03 00:31:00,
2013-03-02 16:42:00,74.0,25.0,30.19,West,269,2.0,3.0,16,0.00,,,0.00,,2013-03-03 00:42:00,
2013-03-02 16:52:00,74.0,25.0,30.18,NNW,339,2.0,4.0,16,0.00,,,0.00,,2013-03-03 00:52:00,
2013-03-02 17:01:00,74.0,25.0,30.18,NNW,342,1.0,2.0,16,0.00,,,0.00,,2013-03-03 01:01:00,
2013-03-02 17:11:00,74.0,25.0,30.18,NNW,342,1.0,2.0,16,0.00,,,0.00,,2013-03-03 01:11:00,
2013-03-02 17:21:00,72.0,25.0,30.17,NNW,341,0.0,0.0,17,0.00,,,0.00,,2013-03-03 01:21:00,
2013-03-02 17:31:00,71.0,29.0,30.17,NE,50,3.0,4.0,21,0.00,,,0.00,,2013-03-03 01:31:00,
2013-03-02 17:41:00,71.0,29.0,30.17,NE,50,3.0,4.0,21,0.00,,,0.00,,2013-03-03 01:41:00,
2013-03-02 17:52:00,67.0,28.0,30.18,NE,39,4.0,4.0,23,0.00,,,0.00,,2013-03-03 01:52:00,
2013-03-02 18:01:00,68.0,24.0,30.18,NE,36,3.0,7.0,19,0.00,,,0.00,,2013-03-03 02:01:00,
2013-03-02 18:11:00,68.0,24.0,30.18,NE,36,3.0,7.0,19,0.00,,,0.00,,2013-03-03 02:11:00,
2013-03-02 18:21:00,67.0,23.0,30.18,East,82,6.0,7.0,19,0.00,,,0.00,,2013-03-03 02:21:00,
2013-03-02 18:31:00,66.0,25.0,30.18,SE,135,2.0,10.0,21,0.00,,,0.00,,2013-03-03 02:31:00,
2013-03-02 18:41:00,66.0,25.0,30.18,SE,135,2.0,10.0,21,0.00,,,0.00,,2013-03-03 02:41:00,
2013-03-02 18:52:00,65.0,23.0,30.18,ENE,58,3.0,5.0,20,0.00,,,0.00,,2013-03-03 02:52:00,
2013-03-02 19:01:00,65.0,25.0,30.18,ESE,109,6.0,8.0,22,0.00,,,0.00,,2013-03-03 03:01:00,
2013-03-02 19:11:00,65.0,25.0,30.18,ESE,109,6.0,8.0,22,0.00,,,0.00,,2013-03-03 03:11:00,
2013-03-02 19:21:00,63.0,25.0,30.18,SE,129,3.0,6.0,23,0.00,,,0.00,,2013-03-03 03:21:00,
2013-03-02 19:31:00,62.0,24.0,30.18,ESE,111,7.0,12.0,23,0.00,,,0.00,,2013-03-03 03:31:00,
2013-03-02 19:41:00,62.0,24.0,30.18,ESE,111,7.0,12.0,23,0.00,,,0.00,,2013-03-03 03:41:00,
2013-03-02 19:51:00,63.0,26.0,30.18,ESE,106,8.0,12.0,24,0.00,,,0.00,,2013-03-03 03:51:00,
2013-03-02 20:01:00,64.0,24.0,30.18,South,169,7.0,15.0,22,0.00,,,0.00,,2013-03-03 04:01:00,
2013-03-02 20:11:00,64.0,24.0,30.18,South,169,7.0,15.0,22,0.00,,,0.00,,2013-03-03 04:11:00,
2013-03-02 20:21:00,65.0,26.0,30.18,ESE,123,8.0,18.0,23,0.00,,,0.00,,2013-03-03 04:21:00,
2013-03-02 20:31:00,63.0,26.0,30.18,SSE,148,4.0,13.0,24,0.00,,,0.00,,2013-03-03 04:31:00,
2013-03-02 20:41:00,63.0,26.0,30.18,SSE,148,4.0,13.0,24,0.00,,,0.00,,2013-03-03 04:41:00,
2013-03-02 20:52:00,63.0,26.0,30.19,ESE,123,10.0,17.0,24,0.00,,,0.00,,2013-03-03 04:52:00,
2013-03-02 21:01:00,62.0,25.0,30.19,SE,129,10.0,17.0,24,0.00,,,0.00,,2013-03-03 05:01:00,
2013-03-02 21:11:00,62.0,25.0,30.19,SE,129,10.0,17.0,24,0.00,,,0.00,,2013-03-03 05:11:00,
2013-03-02 21:21:00,62.0,25.0,30.19,ESE,120,10.0,17.0,24,0.00,,,0.00,,2013-03-03 05:21:00,
2013-03-02 21:32:00,63.0,26.0,30.19,SE,133,12.0,16.0,24,0.00,,,0.00,,2013-03-03 05:32:00,
2013-03-02 21:42:00,63.0,26.0,30.19,SE,133,12.0,16.0,24,0.00,,,0.00,,2013-03-03 05:42:00,
2013-03-02 21:52:00,63.0,26.0,30.19,SSW,201,8.0,20.0,24,0.00,,,0.00,,2013-03-03 05:52:00,
2013-03-02 22:01:00,63.0,22.0,30.19,WSW,249,4.0,8.0,21,0.00,,,0.00,,2013-03-03 06:01:00,
2013-03-02 22:11:00,63.0,22.0,30.19,WSW,249,4.0,8.0,21,0.00,,,0.00,,2013-03-03 06:11:00,
2013-03-02 22:21:00,62.0,22.0,30.18,ESE,116,5.0,9.0,21,0.00,,,0.00,,2013-03-03 06:21:00,
2013-03-02 22:31:00,59.0,22.0,30.18,NNW,328,3.0,9.0,24,0.00,,,0.00,,2013-03-03 06:31:00,
2013-03-02 22:42:00,59.0,22.0,30.18,NNW,328,3.0,9.0,24,0.00,,,0.00,,2013-03-03 06:42:00,
2013-03-02 22:52:00,58.0,22.0,30.18,ENE,58,1.0,3.0,25,0.00,,,0.00,,2013-03-03 06:52:00,
2013-03-02 23:01:00,58.0,22.0,30.18,NNW,340,1.0,4.0,25,0.00,,,0.00,,2013-03-03 07:01:00,
2013-03-02 23:11:00,58.0,22.0,30.18,NNW,340,1.0,4.0,25,0.00,,,0.00,,2013-03-03 07:11:00,
2013-03-02 23:21:00,57.0,22.0,30.17,NW,318,1.0,7.0,25,0.00,,,0.00,,2013-03-03 07:21:00,
2013-03-02 23:31:00,55.0,21.0,30.17,WSW,255,1.0,6.0,26,0.00,,,0.00,,2013-03-03 07:31:00,
2013-03-02 23:42:00,55.0,21.0,30.17,WSW,255,1.0,6.0,26,0.00,,,0.00,,2013-03-03 07:42:00,
2013-03-02 23:52:00,54.0,20.0,30.17,SSE,167,3.0,5.0,26,0.00,,,0.00,,2013-03-03 07:52:00,